Time;durP1;ratioP1;P1;durP2;ratioP2;P2;SDS_P1;SDS_P2;PMS_P1;PMS_P2;Temp;Humidity;BMP_temperature;BMP_pressure;BME280_temperature;BME280_humidity;BME280_pressure;Samples;Min_cycle;Max_cycle;Signal;HPM_P1;HPM_P2
2023/09/16 00:06:06;;;;;;;;;;;17.00;99.90;;;;;;21146759;28;19962;-73
2023/09/16 00:16:08;;;;;;;;;;;16.90;99.90;;;;;;21164082;28;19916;-73
2023/09/16 00:26:09;;;;;;;;;;;16.80;99.90;;;;;;21163169;28;19965;-74
2023/09/16 00:36:12;;;;;;;;;;;16.70;99.90;;;;;;21144381;28;20016;-74
2023/09/16 00:46:12;;;;;;;;;;;16.60;99.90;;;;;;21162666;28;20283;-74
2023/09/16 00:56:13;;;;;;;;;;;16.70;99.90;;;;;;21161155;28;20020;-74
2023/09/16 01:06:16;;;;;;;;;;;16.70;99.90;;;;;;21142818;28;19978;-74
2023/09/16 01:16:37;;;;;;;;;;;16.60;99.90;;;;;;21140826;28;19969;-74
2023/09/16 01:26:38;;;;;;;;;;;16.60;99.90;;;;;;21159299;28;19945;-74
2023/09/16 01:36:40;;;;;;;;;;;16.50;99.90;;;;;;21158635;28;19951;-74
2023/09/16 01:46:40;;;;;;;;;;;16.30;99.90;;;;;;21157826;28;19915;-73
2023/09/16 01:56:44;;;;;;;;;;;16.30;99.90;;;;;;21139461;28;19997;-74
2023/09/16 02:06:46;;;;;;;;;;;16.30;99.90;;;;;;21112365;28;20011;-74
2023/09/16 02:16:47;;;;;;;;;;;16.30;99.90;;;;;;21086412;28;19915;-74
2023/09/16 02:26:48;;;;;;;;;;;16.30;99.90;;;;;;21112976;28;19922;-74
2023/09/16 02:36:49;;;;;;;;;;;16.40;99.90;;;;;;21115675;28;19963;-74
2023/09/16 02:46:49;;;;;;;;;;;16.30;99.90;;;;;;21130437;28;20408;-74
2023/09/16 02:56:51;;;;;;;;;;;16.20;99.90;;;;;;21155666;28;19923;-74
2023/09/16 03:06:53;;;;;;;;;;;16.10;99.90;;;;;;21151644;28;19955;-74
2023/09/16 03:16:55;;;;;;;;;;;16.00;99.90;;;;;;21127164;28;20400;-74
2023/09/16 03:26:56;;;;;;;;;;;15.70;99.90;;;;;;21133879;28;19919;-73
2023/09/16 03:36:57;;;;;;;;;;;16.00;99.90;;;;;;21159358;28;19916;-74
2023/09/16 03:46:58;;;;;;;;;;;16.00;99.90;;;;;;21150998;28;20174;-73
2023/09/16 03:56:58;;;;;;;;;;;15.80;99.90;;;;;;21147709;28;19919;-74
2023/09/16 04:07:00;;;;;;;;;;;15.60;99.90;;;;;;21146002;28;19922;-74
2023/09/16 04:17:01;;;;;;;;;;;15.70;99.90;;;;;;21127187;28;19923;-74
2023/09/16 04:27:02;;;;;;;;;;;15.50;99.90;;;;;;21162976;28;19912;-73
2023/09/16 04:37:05;;;;;;;;;;;15.50;99.90;;;;;;21142506;28;19916;-74
2023/09/16 04:47:13;;;;;;;;;;;15.30;99.90;;;;;;21132926;28;19912;-73
2023/09/16 04:57:13;;;;;;;;;;;15.20;99.90;;;;;;21139841;28;19916;-73
2023/09/16 05:07:14;;;;;;;;;;;14.90;99.90;;;;;;21151670;28;19916;-73
2023/09/16 05:17:15;;;;;;;;;;;15.20;99.90;;;;;;21137203;28;19922;-74
2023/09/16 05:27:17;;;;;;;;;;;15.40;99.90;;;;;;21131074;28;20309;-74
2023/09/16 05:37:17;;;;;;;;;;;15.50;99.90;;;;;;21155341;28;19966;-74
2023/09/16 05:47:18;;;;;;;;;;;15.50;99.90;;;;;;21109144;28;19923;-74
2023/09/16 05:57:19;;;;;;;;;;;15.80;99.90;;;;;;21121309;28;19915;-74
2023/09/16 06:07:20;;;;;;;;;;;16.10;99.90;;;;;;21136875;28;19998;-74
2023/09/16 06:17:22;;;;;;;;;;;16.10;99.90;;;;;;21136466;28;19937;-73
2023/09/16 06:27:23;;;;;;;;;;;16.40;99.90;;;;;;21127873;28;19912;-74
2023/09/16 06:37:24;;;;;;;;;;;16.90;99.90;;;;;;21146551;28;20323;-74
2023/09/16 06:47:26;;;;;;;;;;;17.10;99.90;;;;;;21131693;28;19912;-74
2023/09/16 06:57:27;;;;;;;;;;;17.30;99.90;;;;;;21146954;28;19924;-74
2023/09/16 07:07:28;;;;;;;;;;;18.00;99.90;;;;;;21135163;28;19942;-74
2023/09/16 07:17:28;;;;;;;;;;;18.30;99.90;;;;;;21158649;28;19963;-74
2023/09/16 07:27:29;;;;;;;;;;;19.70;99.90;;;;;;21159736;28;20382;-75
2023/09/16 07:37:30;;;;;;;;;;;20.40;99.90;;;;;;21159803;28;19916;-75
2023/09/16 07:47:30;;;;;;;;;;;20.20;99.90;;;;;;21141653;28;20524;-75
2023/09/16 07:57:31;;;;;;;;;;;19.50;99.90;;;;;;21154022;28;19915;-75
2023/09/16 08:07:31;;;;;;;;;;;19.30;99.90;;;;;;21152542;28;19966;-74
2023/09/16 08:17:32;;;;;;;;;;;19.50;99.90;;;;;;21133944;28;19923;-74
2023/09/16 08:27:33;;;;;;;;;;;19.90;99.90;;;;;;21131680;28;19911;-74
2023/09/16 08:37:34;;;;;;;;;;;20.00;99.90;;;;;;21157524;28;19916;-75
2023/09/16 08:47:51;;;;;;;;;;;20.70;99.90;;;;;;21149306;28;19965;-76
2023/09/16 08:57:55;;;;;;;;;;;20.40;99.90;;;;;;21107686;28;20038;-74
2023/09/16 09:07:56;;;;;;;;;;;20.90;99.90;;;;;;21149181;28;20638;-75
2023/09/16 09:17:57;;;;;;;;;;;21.50;99.90;;;;;;21140564;28;19924;-75
2023/09/16 09:27:58;;;;;;;;;;;21.50;99.90;;;;;;21153122;28;20333;-76
2023/09/16 09:37:59;;;;;;;;;;;22.60;99.90;;;;;;21152422;28;19969;-76
2023/09/16 09:47:59;;;;;;;;;;;22.60;99.90;;;;;;21144645;28;19912;-76
2023/09/16 09:58:00;;;;;;;;;;;23.30;99.90;;;;;;21151154;28;19916;-75
2023/09/16 10:08:01;;;;;;;;;;;23.90;99.90;;;;;;21151112;28;19923;-75
2023/09/16 10:18:02;;;;;;;;;;;23.10;99.90;;;;;;21149528;28;19915;-75
2023/09/16 10:28:04;;;;;;;;;;;23.50;99.90;;;;;;21149653;28;19980;-76
2023/09/16 10:38:06;;;;;;;;;;;24.70;99.90;;;;;;21104130;28;19969;-76
2023/09/16 10:48:07;;;;;;;;;;;27.00;99.90;;;;;;21150430;28;19919;-76
2023/09/16 10:58:19;;;;;;;;;;;27.90;99.90;;;;;;21160435;28;19916;-76
2023/09/16 11:08:20;;;;;;;;;;;28.10;99.90;;;;;;21140963;28;19922;-74
2023/09/16 11:18:21;;;;;;;;;;;29.00;99.90;;;;;;21147160;28;19948;-75
2023/09/16 11:28:22;;;;;;;;;;;29.70;99.90;;;;;;21152678;28;20286;-75
2023/09/16 11:38:22;;;;;;;;;;;29.80;99.90;;;;;;21164264;28;19962;-75
2023/09/16 11:48:25;;;;;;;;;;;29.30;99.90;;;;;;21159864;28;19919;-75
2023/09/16 11:58:26;;;;;;;;;;;30.10;99.90;;;;;;21139462;28;19938;-75
2023/09/16 12:08:26;;;;;;;;;;;30.20;99.90;;;;;;21146443;28;19916;-74
2023/09/16 12:18:28;;;;;;;;;;;29.90;99.90;;;;;;21147204;28;20362;-74
2023/09/16 12:28:29;;;;;;;;;;;29.80;99.60;;;;;;21138997;28;19911;-75
2023/09/16 12:38:30;;;;;;;;;;;29.30;99.40;;;;;;21133166;28;20370;-75
2023/09/16 12:48:34;;;;;;;;;;;30.30;98.60;;;;;;21160161;28;20350;-74
2023/09/16 12:58:41;;;;;;;;;;;30.60;96.90;;;;;;21143509;28;19938;-74
2023/09/16 13:08:42;;;;;;;;;;;30.90;93.20;;;;;;21118877;28;19916;-75
2023/09/16 13:18:43;;;;;;;;;;;31.10;93.50;;;;;;21150766;28;20281;-74
2023/09/16 13:29:13;;;;;;;;;;;30.10;92.60;;;;;;21142490;28;20011;-73
2023/09/16 13:39:14;;;;;;;;;;;30.50;94.10;;;;;;21132443;28;19961;-74
2023/09/16 13:49:15;;;;;;;;;;;29.40;93.60;;;;;;21140661;28;19957;-74
2023/09/16 13:59:16;;;;;;;;;;;29.50;93.10;;;;;;21147141;28;20006;-75
2023/09/16 14:09:16;;;;;;;;;;;29.40;92.20;;;;;;21146092;28;20010;-74
2023/09/16 14:19:19;;;;;;;;;;;29.30;92.80;;;;;;21146536;28;20018;-74
2023/09/16 14:29:19;;;;;;;;;;;29.90;91.00;;;;;;21160836;28;19922;-74
2023/09/16 14:39:20;;;;;;;;;;;29.60;90.80;;;;;;21147326;28;20365;-74
2023/09/16 14:49:24;;;;;;;;;;;28.80;92.70;;;;;;21142021;28;19912;-73
2023/09/16 14:59:24;;;;;;;;;;;28.50;92.40;;;;;;21147498;28;20438;-74
2023/09/16 15:09:25;;;;;;;;;;;27.70;96.60;;;;;;21154955;28;19950;-74
2023/09/16 15:19:26;;;;;;;;;;;27.80;99.90;;;;;;21147139;28;19923;-74
2023/09/16 15:29:26;;;;;;;;;;;27.60;99.90;;;;;;21124298;28;20290;-75
2023/09/16 15:39:30;;;;;;;;;;;27.00;99.90;;;;;;21139572;28;19930;-74
2023/09/16 15:49:32;;;;;;;;;;;26.30;99.90;;;;;;21166642;27;20040;-75
2023/09/16 15:59:33;;;;;;;;;;;25.60;99.90;;;;;;21148295;28;19955;-75
2023/09/16 16:09:34;;;;;;;;;;;25.40;99.90;;;;;;21159307;28;19915;-75
2023/09/16 16:19:34;;;;;;;;;;;25.00;99.90;;;;;;21157232;28;20015;-74
2023/09/16 16:29:35;;;;;;;;;;;24.60;99.90;;;;;;21153890;28;19912;-74
2023/09/16 16:39:36;;;;;;;;;;;24.40;99.90;;;;;;21127588;28;19916;-75
2023/09/16 16:49:36;;;;;;;;;;;24.20;99.90;;;;;;21147608;28;19912;-75
2023/09/16 16:59:37;;;;;;;;;;;24.10;99.90;;;;;;21136177;28;19915;-74
2023/09/16 17:09:37;;;;;;;;;;;24.10;99.90;;;;;;21164853;28;19916;-75
2023/09/16 17:19:38;;;;;;;;;;;24.00;99.90;;;;;;21132100;28;19920;-75
2023/09/16 17:29:39;;;;;;;;;;;23.70;99.90;;;;;;21154534;28;19912;-75
2023/09/16 17:39:39;;;;;;;;;;;23.30;99.90;;;;;;21154150;28;19966;-75
2023/09/16 17:49:41;;;;;;;;;;;23.00;99.90;;;;;;21148342;28;20014;-75
2023/09/16 17:59:41;;;;;;;;;;;22.50;99.90;;;;;;21162970;28;19916;-74
2023/09/16 18:09:42;;;;;;;;;;;22.20;99.90;;;;;;21156034;28;19922;-75
2023/09/16 18:19:43;;;;;;;;;;;21.70;99.90;;;;;;21115796;28;20284;-75
2023/09/16 18:29:43;;;;;;;;;;;21.60;99.90;;;;;;21146348;28;20346;-74
2023/09/16 18:39:44;;;;;;;;;;;21.40;99.90;;;;;;21156806;28;19955;-74
2023/09/16 18:49:45;;;;;;;;;;;21.20;99.90;;;;;;21148633;28;20285;-74
2023/09/16 18:59:45;;;;;;;;;;;21.00;99.90;;;;;;21134869;28;19970;-75
2023/09/16 19:09:46;;;;;;;;;;;21.00;99.90;;;;;;21146263;28;20511;-75
2023/09/16 19:19:47;;;;;;;;;;;20.70;99.90;;;;;;21154119;28;19916;-74
2023/09/16 19:29:47;;;;;;;;;;;21.10;99.90;;;;;;21156326;28;19912;-75
2023/09/16 19:39:48;;;;;;;;;;;20.50;99.90;;;;;;21154099;28;19919;-75
2023/09/16 19:49:48;;;;;;;;;;;20.70;99.90;;;;;;21158961;28;20343;-75
2023/09/16 19:59:49;;;;;;;;;;;20.40;99.90;;;;;;21156244;28;19915;-75
2023/09/16 20:09:50;;;;;;;;;;;19.90;99.90;;;;;;21158019;28;19915;-74
2023/09/16 20:19:52;;;;;;;;;;;19.50;99.90;;;;;;21149906;28;19928;-74
2023/09/16 20:29:53;;;;;;;;;;;19.10;99.90;;;;;;21135747;28;19916;-74
2023/09/16 20:39:54;;;;;;;;;;;18.80;99.90;;;;;;21139787;28;20046;-74
2023/09/16 20:49:55;;;;;;;;;;;18.50;99.90;;;;;;21150209;28;19916;-74
2023/09/16 20:59:55;;;;;;;;;;;18.50;99.90;;;;;;21142861;28;19985;-74
2023/09/16 21:09:56;;;;;;;;;;;18.40;99.90;;;;;;21116985;28;19916;-73
2023/09/16 21:19:56;;;;;;;;;;;17.80;99.90;;;;;;21133534;28;20345;-73
2023/09/16 21:29:57;;;;;;;;;;;17.90;99.90;;;;;;21135092;28;19911;-73
2023/09/16 21:39:58;;;;;;;;;;;17.80;99.90;;;;;;21145774;28;19915;-74
2023/09/16 21:49:58;;;;;;;;;;;17.60;99.90;;;;;;21134394;28;20373;-73
2023/09/16 21:59:59;;;;;;;;;;;17.80;99.90;;;;;;21139272;28;20788;-73
2023/09/16 22:10:02;;;;;;;;;;;17.40;99.90;;;;;;21129958;28;20295;-73
2023/09/16 22:20:03;;;;;;;;;;;17.60;99.90;;;;;;21129274;28;19916;-73
2023/09/16 22:30:06;;;;;;;;;;;18.00;99.90;;;;;;21129902;28;19919;-73
2023/09/16 22:40:07;;;;;;;;;;;17.90;99.90;;;;;;21130982;28;19916;-73
2023/09/16 22:50:08;;;;;;;;;;;17.60;99.90;;;;;;21145114;28;20312;-73
2023/09/16 23:00:09;;;;;;;;;;;17.50;99.90;;;;;;21141026;28;19966;-72
2023/09/16 23:10:09;;;;;;;;;;;17.20;99.90;;;;;;21142589;28;20338;-74
2023/09/16 23:20:10;;;;;;;;;;;17.20;99.90;;;;;;21139522;28;19920;-73
2023/09/16 23:30:11;;;;;;;;;;;16.70;99.90;;;;;;21140113;28;20118;-73
2023/09/16 23:40:12;;;;;;;;;;;16.60;99.90;;;;;;21139076;28;20382;-73
2023/09/16 23:50:12;;;;;;;;;;;16.40;99.90;;;;;;21141912;28;19918;-73
